createdAt,value
2022-10-18T00:00:22.541Z,102742.97
2022-10-18T00:02:51.509Z,102743.78
2022-10-18T00:05:23.270Z,102742.97
2022-10-18T00:07:49.874Z,102730.91
2022-10-18T00:10:18.847Z,102733.63
2022-10-18T00:15:53.805Z,102732.84
2022-10-18T00:18:20.871Z,102738.31
2022-10-18T00:21:22.888Z,102730.91
2022-10-18T00:23:50.840Z,102730.13
2022-10-18T00:26:22.094Z,102732.84
2022-10-18T00:28:55.146Z,102739.44
2022-10-18T00:34:14.069Z,102742.19
2022-10-18T00:36:43.125Z,102737.06
2022-10-18T00:39:31.247Z,102736.28
2022-10-18T00:41:58.122Z,102741.75
2022-10-18T00:44:26.717Z,102741.31
2022-10-18T00:46:59.808Z,102742.47
2022-10-18T00:49:39.626Z,102742.38
2022-10-18T00:52:16.469Z,102755.25
2022-10-18T00:54:59.037Z,102750.13
2022-10-18T00:57:26.201Z,102746.16
2022-10-18T01:00:19.613Z,102746.88
2022-10-18T01:02:50.706Z,102751.56
2022-10-18T01:05:20.242Z,102758.94
2022-10-18T01:08:08.709Z,102750.31
2022-10-18T01:11:08.406Z,102756.59
2022-10-18T01:13:59.038Z,102758.88
2022-10-18T01:17:04.581Z,102757.72
2022-10-18T01:20:25.637Z,102755.69
2022-10-18T01:22:57.100Z,102747.84
2022-10-18T01:26:07.909Z,102756.38
2022-10-18T01:29:13.610Z,102759.84
2022-10-18T01:37:29.586Z,102776.56
2022-10-18T01:39:58.329Z,102773.84
2022-10-18T01:42:25.873Z,102774.66
2022-10-18T01:44:55.276Z,102776.22
2022-10-18T01:47:23.214Z,102772.38
2022-10-18T01:49:51.290Z,102775.09
2022-10-18T01:52:22.580Z,102772.72
2022-10-18T01:54:50.053Z,102760.63
2022-10-18T01:57:31.669Z,102762.56
2022-10-18T02:00:16.914Z,102764.97
2022-10-18T02:02:48.181Z,102761.44
2022-10-18T02:05:41.608Z,102762.22
2022-10-18T02:08:37.339Z,102759.84
2022-10-18T02:11:37.988Z,102765.66
2022-10-18T02:14:09.075Z,102773.84
2022-10-18T02:16:45.199Z,102770.66
2022-10-18T02:19:40.973Z,102769.09
2022-10-18T02:22:10.905Z,102771.38
2022-10-18T02:24:43.012Z,102771.38
2022-10-18T02:27:10.599Z,102774.13
2022-10-18T02:29:37.745Z,102773.66
2022-10-18T02:32:39.354Z,102771.28
2022-10-18T02:35:08.713Z,102772.44
2022-10-18T02:37:39.415Z,102772.00
2022-10-18T02:40:08.947Z,102769.97
2022-10-18T02:45:25.086Z,102761.66
2022-10-18T02:47:54.998Z,102774.09
2022-10-18T02:53:02.432Z,102769.66
2022-10-18T02:57:55.717Z,102774.56
2022-10-18T03:00:22.357Z,102771.06
2022-10-18T03:02:49.307Z,102763.19
2022-10-18T03:05:16.039Z,102766.28
2022-10-18T03:08:07.016Z,102765.84
2022-10-18T03:10:35.885Z,102758.00
2022-10-18T03:13:06.369Z,102764.63
2022-10-18T03:15:32.967Z,102772.38
2022-10-18T03:17:59.570Z,102770.31
2022-10-18T03:20:26.257Z,102771.81
2022-10-18T03:22:52.963Z,102770.22
2022-10-18T03:25:22.233Z,102769.44
2022-10-18T03:27:48.945Z,102768.63
2022-10-18T03:30:17.395Z,102776.38
2022-10-18T03:32:45.459Z,102779.09
2022-10-18T03:35:12.084Z,102780.25
2022-10-18T03:37:38.742Z,102774.00
2022-10-18T03:40:08.091Z,102774.34
2022-10-18T03:42:35.896Z,102774.69
2022-10-18T03:45:02.664Z,102771.50
2022-10-18T03:50:29.922Z,102776.53
2022-10-18T03:52:59.126Z,102769.81
2022-10-18T03:55:25.745Z,102778.72
2022-10-18T03:57:52.296Z,102781.00
2022-10-18T04:00:21.400Z,102772.34
2022-10-18T04:02:51.899Z,102778.53
2022-10-18T04:05:25.530Z,102767.16
2022-10-18T04:07:52.126Z,102768.97
2022-10-18T04:10:19.125Z,102777.16
2022-10-18T04:12:45.857Z,102774.00
2022-10-18T04:15:13.908Z,102774.69
2022-10-18T04:17:40.550Z,102770.03
2022-10-18T04:20:07.634Z,102771.50
2022-10-18T04:22:34.259Z,102785.84
2022-10-18T04:25:01.331Z,102781.06
2022-10-18T04:27:27.989Z,102766.19
2022-10-18T04:29:55.996Z,102763.81
2022-10-18T04:32:22.930Z,102768.81
2022-10-18T04:34:52.310Z,102770.75
2022-10-18T04:37:18.922Z,102764.06
2022-10-18T04:39:51.225Z,102759.72
2022-10-18T04:42:20.630Z,102770.22
2022-10-18T04:44:47.363Z,102769.38
2022-10-18T04:47:14.030Z,102768.94
2022-10-18T04:49:40.614Z,102775.09
2022-10-18T04:52:07.377Z,102773.06
2022-10-18T04:54:33.978Z,102785.56
2022-10-18T04:57:00.613Z,102784.31
2022-10-18T04:59:27.196Z,102778.41
2022-10-18T05:01:53.992Z,102774.44
2022-10-18T05:04:20.732Z,102774.44
2022-10-18T05:06:47.433Z,102779.09
2022-10-18T05:09:14.079Z,102784.09
2022-10-18T05:11:40.723Z,102782.41
2022-10-18T05:14:10.235Z,102785.78
2022-10-18T05:16:36.886Z,102784.88
2022-10-18T05:19:05.718Z,102790.72
2022-10-18T05:21:33.749Z,102791.81
2022-10-18T05:24:00.491Z,102794.09
2022-10-18T05:26:28.020Z,102798.31
2022-10-18T05:28:57.057Z,102804.44
2022-10-18T05:31:23.770Z,102807.50
2022-10-18T05:33:51.778Z,102804.00
2022-10-18T05:36:18.551Z,102813.75
2022-10-18T05:38:45.636Z,102806.72
2022-10-18T05:41:12.809Z,102810.56
2022-10-18T05:43:42.643Z,102807.06
2022-10-18T05:46:14.604Z,102815.22
2022-10-18T05:48:46.008Z,102818.75
2022-10-18T05:51:12.731Z,102820.69
2022-10-18T05:53:39.327Z,102812.50
2022-10-18T05:56:09.159Z,102824.56
2022-10-18T05:58:35.790Z,102820.69
2022-10-18T06:01:06.014Z,102821.47
2022-10-18T06:10:28.817Z,102842.06
2022-10-18T06:12:55.264Z,102846.16
2022-10-18T06:15:22.790Z,102858.41
2022-10-18T06:17:49.248Z,102866.97
2022-10-18T06:20:15.832Z,102865.47
2022-10-18T06:22:42.304Z,102862.06
2022-10-18T06:25:09.402Z,102861.38
2022-10-18T06:27:35.865Z,102868.44
2022-10-18T06:30:02.537Z,102880.13
2022-10-18T06:32:30.031Z,102878.53
2022-10-18T06:35:01.488Z,102871.16
2022-10-18T06:37:31.790Z,102877.84
2022-10-18T06:39:58.741Z,102877.84
2022-10-18T06:42:27.864Z,102889.91
2022-10-18T06:44:54.453Z,102893.09
2022-10-18T06:47:21.192Z,102899.34
2022-10-18T06:49:48.014Z,102900.47
2022-10-18T06:55:19.942Z,102909.47
2022-10-18T06:57:46.812Z,102914.56
2022-10-18T07:00:14.111Z,102916.84
2022-10-18T07:05:26.884Z,102913.44
2022-10-18T07:07:56.529Z,102925.16
2022-10-18T07:10:24.160Z,102930.59
2022-10-18T07:12:56.013Z,102926.28
2022-10-18T07:18:31.047Z,102931.53
2022-10-18T07:20:57.675Z,102928.78
2022-10-18T07:23:53.974Z,102931.53
2022-10-18T07:26:23.284Z,102929.25
2022-10-18T07:28:55.377Z,102930.03
2022-10-18T07:31:23.013Z,102941.75
2022-10-18T07:33:49.762Z,102949.13
2022-10-18T07:36:16.807Z,102953.81
2022-10-18T07:39:08.815Z,102954.59
2022-10-18T07:41:35.918Z,102958.56
2022-10-18T07:44:03.738Z,102953.91
2022-10-18T07:46:33.264Z,102957.91
2022-10-18T07:49:04.692Z,102950.50
2022-10-18T07:51:32.865Z,102960.28
2022-10-18T07:53:59.783Z,102964.94
2022-10-18T07:56:29.929Z,102969.94
2022-10-18T07:58:57.110Z,102972.34
2022-10-18T08:01:24.869Z,102973.47
2022-10-18T08:03:53.791Z,102979.38
2022-10-18T08:06:24.676Z,102977.91
2022-10-18T08:08:52.334Z,102973.72
2022-10-18T08:11:22.289Z,102983.03
2022-10-18T08:13:49.239Z,102974.97
2022-10-18T08:16:19.333Z,102984.72
2022-10-18T08:18:46.252Z,102991.81
2022-10-18T08:21:14.178Z,102987.59
2022-10-18T08:23:41.314Z,102984.88
2022-10-18T08:26:12.266Z,102984.16
2022-10-18T08:28:39.409Z,102994.75
2022-10-18T08:34:19.377Z,102990.09
2022-10-18T08:36:46.325Z,102988.63
2022-10-18T08:39:12.883Z,102983.94
2022-10-18T08:41:42.418Z,102982.78
2022-10-18T08:44:11.930Z,102987.13
2022-10-18T08:46:45.410Z,102989.16
2022-10-18T08:49:21.301Z,102987.69
2022-10-18T08:51:50.954Z,102988.50
2022-10-18T08:54:43.635Z,102987.34
2022-10-18T08:57:29.854Z,102979.16
2022-10-18T08:59:56.591Z,102984.38
2022-10-18T09:03:01.623Z,102983.59
2022-10-18T09:05:46.253Z,102984.03
2022-10-18T09:08:32.473Z,102986.19
2022-10-18T09:11:02.179Z,102992.22
2022-10-18T09:13:59.429Z,102999.38
2022-10-18T09:16:36.694Z,102996.22
2022-10-18T09:19:10.381Z,102991.53
2022-10-18T09:21:52.829Z,103000.28
2022-10-18T09:24:30.924Z,103008.94
2022-10-18T09:27:04.710Z,103021.25
2022-10-18T09:29:48.754Z,103018.63
2022-10-18T09:32:36.491Z,103006.53
2022-10-18T09:35:26.028Z,103012.91
2022-10-18T09:38:09.688Z,103025.78
2022-10-18T09:40:47.048Z,103021.00
2022-10-18T09:55:05.558Z,103016.63
2022-10-18T09:58:07.496Z,103025.59
2022-10-18T10:00:44.777Z,103024.56
2022-10-18T10:03:14.942Z,103029.00
2022-10-18T10:05:42.822Z,103026.72
2022-10-18T10:08:09.848Z,103030.69
2022-10-18T10:10:39.205Z,103030.78
2022-10-18T10:13:18.955Z,103033.19
2022-10-18T10:15:52.202Z,103039.91
2022-10-18T10:18:22.538Z,103039.66
2022-10-18T10:20:53.581Z,103049.09
2022-10-18T10:23:31.753Z,103044.97
2022-10-18T10:26:03.909Z,103046.22
2022-10-18T10:28:35.770Z,103051.00
2022-10-18T10:31:19.703Z,103045.28
2022-10-18T10:33:47.983Z,103042.63
2022-10-18T10:36:19.944Z,103051.72
2022-10-18T10:38:46.823Z,103051.81
2022-10-18T10:41:22.188Z,103048.38
2022-10-18T10:43:51.319Z,103051.56
2022-10-18T10:46:20.112Z,103051.22
2022-10-18T10:49:09.529Z,103048.94
2022-10-18T10:51:40.938Z,103056.09
2022-10-18T10:54:15.717Z,103063.13
2022-10-18T10:56:56.793Z,103061.22
2022-10-18T10:59:26.588Z,103056.63
2022-10-18T11:02:30.371Z,103052.28
2022-10-18T11:05:15.429Z,103054.44
2022-10-18T11:07:45.559Z,103057.69
2022-10-18T11:10:13.561Z,103053.47
2022-10-18T11:12:45.056Z,103067.94
2022-10-18T11:15:12.511Z,103075.81
2022-10-18T11:17:56.193Z,103070.44
2022-10-18T11:20:29.594Z,103067.38
2022-10-18T11:22:55.998Z,103058.00
2022-10-18T11:25:25.600Z,103061.97
2022-10-18T11:28:04.389Z,103059.31
2022-10-18T11:30:41.938Z,103058.25
2022-10-18T11:33:50.043Z,103056.31
2022-10-18T11:36:20.896Z,103057.53
2022-10-18T11:39:02.006Z,103055.69
2022-10-18T11:41:35.713Z,103058.88
2022-10-18T11:44:09.477Z,103055.78
2022-10-18T11:46:52.094Z,103063.22
2022-10-18T11:49:44.433Z,103059.75
2022-10-18T11:52:26.620Z,103062.94
2022-10-18T11:54:59.258Z,103067.72
2022-10-18T11:57:25.934Z,103066.13
2022-10-18T12:00:02.050Z,103069.31
2022-10-18T12:03:13.067Z,103060.31
2022-10-18T12:05:44.820Z,103052.09
2022-10-18T12:08:12.259Z,103059.03
2022-10-18T12:10:52.688Z,103051.66
2022-10-18T12:13:40.449Z,103048.19
2022-10-18T12:16:09.768Z,103054.09
2022-10-18T12:18:46.879Z,103048.63
2022-10-18T12:21:13.780Z,103045.16
2022-10-18T12:23:52.985Z,103047.66
2022-10-18T12:26:20.764Z,103053.19
2022-10-18T12:28:51.047Z,103048.88
2022-10-18T12:31:21.587Z,103042.25
2022-10-18T12:33:54.293Z,103044.28
2022-10-18T12:36:20.714Z,103044.72
2022-10-18T12:38:52.879Z,103039.66
2022-10-18T12:41:26.912Z,103041.25
2022-10-18T12:43:58.871Z,103040.53
2022-10-18T12:46:43.896Z,103046.81
2022-10-18T12:49:12.969Z,103041.72
2022-10-18T12:51:51.785Z,103039.31
2022-10-18T12:54:29.545Z,103042.41
2022-10-18T12:56:56.991Z,103032.94
2022-10-18T12:59:40.712Z,103036.56
2022-10-18T13:02:07.683Z,103040.53
2022-10-18T13:04:35.120Z,103030.81
2022-10-18T13:10:29.199Z,103026.66
2022-10-18T13:14:16.531Z,103022.78
2022-10-18T13:20:07.774Z,103006.66
2022-10-18T13:27:09.606Z,103009.13
2022-10-18T13:30:32.789Z,103010.72
2022-10-18T14:01:20.964Z,103028.78
2022-10-18T14:04:23.090Z,103020.91
2022-10-18T14:29:41.014Z,103032.00
2022-10-18T14:35:39.141Z,103030.84
2022-10-18T15:04:44.883Z,103049.94
2022-10-18T15:06:01.687Z,103058.16
2022-10-18T15:09:24.188Z,103054.97
2022-10-18T15:14:52.247Z,103052.41
2022-10-18T15:40:37.736Z,103052.28
2022-10-18T17:01:14.163Z,103100.25
2022-10-18T17:03:55.125Z,103095.47
2022-10-18T17:13:51.292Z,103110.38
2022-10-18T18:44:39.747Z,103144.63
